createdAt,value
2019-06-20T00:02:02.695Z,94823.09
2019-06-20T00:04:34.630Z,94826.22
2019-06-20T00:07:06.453Z,94825.16
2019-06-20T00:09:38.376Z,94830.52
2019-06-20T00:12:10.362Z,94833.97
2019-06-20T00:14:43.318Z,94829.59
2019-06-20T00:17:15.182Z,94821.29
2019-06-20T00:19:47.776Z,94820.19
2019-06-20T00:22:19.404Z,94817.84
2019-06-20T00:24:50.983Z,94822.36
2019-06-20T00:27:24.318Z,94821.06
2019-06-20T00:29:56.971Z,94815.31
2019-06-20T00:32:29.552Z,94823.06
2019-06-20T00:35:01.028Z,94817.09
2019-06-20T00:37:32.861Z,94820.26
2019-06-20T00:40:04.711Z,94815.83
2019-06-20T00:42:36.363Z,94808.38
2019-06-20T00:45:09.238Z,94818.11
2019-06-20T00:47:40.833Z,94817.63
2019-06-20T00:50:12.980Z,94820.88
2019-06-20T00:52:44.790Z,94817.19
2019-06-20T00:55:16.638Z,94817.23
2019-06-20T00:57:49.227Z,94807.30
2019-06-20T01:00:22.218Z,94809.39
2019-06-20T01:02:54.060Z,94811.26
2019-06-20T01:05:25.935Z,94816.60
2019-06-20T01:07:57.787Z,94817.35
2019-06-20T01:10:29.419Z,94817.89
2019-06-20T01:13:01.176Z,94819.17
2019-06-20T01:15:33.199Z,94819.20
2019-06-20T01:18:04.730Z,94808.80
2019-06-20T01:20:36.359Z,94809.02
2019-06-20T01:23:08.362Z,94807.45
2019-06-20T01:25:42.490Z,94805.63
2019-06-20T01:28:14.219Z,94804.53
2019-06-20T01:30:45.907Z,94811.20
2019-06-20T01:33:17.269Z,94812.81
2019-06-20T01:35:49.498Z,94815.47
2019-06-20T01:38:21.488Z,94827.23
2019-06-20T01:40:53.320Z,94826.43
2019-06-20T01:43:25.409Z,94822.96
2019-06-20T01:45:56.932Z,94818.64
2019-06-20T01:48:28.964Z,94825.37
2019-06-20T01:51:00.634Z,94825.41
2019-06-20T01:53:32.356Z,94820.02
2019-06-20T01:56:03.976Z,94818.69
2019-06-20T01:58:35.700Z,94820.56
2019-06-20T02:01:07.402Z,94829.38
2019-06-20T02:03:38.976Z,94840.33
2019-06-20T02:06:10.844Z,94841.51
2019-06-20T02:08:42.641Z,94840.66
2019-06-20T02:11:14.274Z,94841.84
2019-06-20T02:13:45.982Z,94845.11
2019-06-20T02:16:17.779Z,94853.41
2019-06-20T02:18:49.530Z,94853.69
2019-06-20T02:21:21.487Z,94856.63
2019-06-20T02:23:53.110Z,94851.53
2019-06-20T02:26:24.893Z,94853.13
2019-06-20T02:28:56.644Z,94855.05
2019-06-20T02:31:28.263Z,94844.36
2019-06-20T02:33:59.890Z,94848.08
2019-06-20T02:36:31.427Z,94845.94
2019-06-20T02:39:03.168Z,94862.25
2019-06-20T02:41:36.672Z,94865.43
2019-06-20T02:44:28.355Z,94870.25
2019-06-20T02:46:42.085Z,94868.11
2019-06-20T02:49:13.531Z,94863.04
2019-06-20T02:51:45.228Z,94855.02
2019-06-20T02:54:17.504Z,94862.23
2019-06-20T02:56:49.545Z,94865.96
2019-06-20T02:59:21.252Z,94870.77
2019-06-20T03:01:53.175Z,94865.14
2019-06-20T03:04:24.641Z,94867.81
2019-06-20T03:06:56.405Z,94864.05
2019-06-20T03:09:31.281Z,94859.53
2019-06-20T03:12:02.898Z,94861.95
2019-06-20T03:14:45.081Z,94855.27
2019-06-20T03:17:06.403Z,94857.13
2019-06-20T03:19:37.751Z,94850.16
2019-06-20T03:22:09.424Z,94853.37
2019-06-20T03:24:41.106Z,94844.52
2019-06-20T03:27:13.013Z,94844.84
2019-06-20T03:29:44.733Z,94853.68
2019-06-20T03:32:16.403Z,94860.36
2019-06-20T03:34:48.107Z,94868.09
2019-06-20T03:37:19.682Z,94865.42
2019-06-20T03:39:51.121Z,94857.68
2019-06-20T03:42:22.756Z,94861.17
2019-06-20T03:45:02.069Z,94860.36
2019-06-20T03:47:28.093Z,94860.61
2019-06-20T03:49:59.597Z,94860.92
2019-06-20T03:52:31.186Z,94853.69
2019-06-20T03:55:02.769Z,94853.17
2019-06-20T03:57:34.359Z,94853.39
2019-06-20T04:00:06.647Z,94855.80
2019-06-20T04:02:38.537Z,94857.88
2019-06-20T04:05:10.513Z,94855.67
2019-06-20T04:07:42.375Z,94849.43
2019-06-20T04:10:14.319Z,94846.73
2019-06-20T04:12:47.070Z,94851.27
2019-06-20T04:15:19.839Z,94856.84
2019-06-20T04:17:51.456Z,94857.36
2019-06-20T04:20:26.252Z,94852.22
2019-06-20T04:22:58.803Z,94855.70
2019-06-20T04:25:30.609Z,94858.70
2019-06-20T04:28:02.165Z,94858.97
2019-06-20T04:30:33.845Z,94862.97
2019-06-20T04:33:05.641Z,94861.58
2019-06-20T04:35:37.308Z,94852.44
2019-06-20T04:38:08.919Z,94843.80
2019-06-20T04:40:40.610Z,94850.11
2019-06-20T04:43:12.062Z,94852.97
2019-06-20T04:45:58.605Z,94849.05
2019-06-20T04:48:30.216Z,94843.77
2019-06-20T04:51:01.994Z,94843.91
2019-06-20T04:53:33.387Z,94846.10
2019-06-20T04:56:06.106Z,94841.15
2019-06-20T04:58:38.011Z,94842.83
2019-06-20T05:01:09.573Z,94841.34
2019-06-20T05:03:41.433Z,94844.95
2019-06-20T05:06:13.294Z,94850.84
2019-06-20T05:08:44.922Z,94849.55
2019-06-20T05:11:16.438Z,94850.20
2019-06-20T05:13:48.224Z,94849.63
2019-06-20T05:16:19.951Z,94859.41
2019-06-20T05:18:51.801Z,94866.42
2019-06-20T05:21:23.227Z,94863.68
2019-06-20T05:23:55.233Z,94873.05
2019-06-20T05:26:26.809Z,94869.46
2019-06-20T05:28:58.533Z,94876.87
2019-06-20T05:31:30.110Z,94870.22
2019-06-20T05:34:01.833Z,94869.52
2019-06-20T05:36:33.684Z,94874.98
2019-06-20T05:39:06.668Z,94872.97
2019-06-20T05:41:37.519Z,94870.23
2019-06-20T05:44:09.195Z,94873.21
2019-06-20T05:46:41.188Z,94878.05
2019-06-20T05:49:12.545Z,94880.78
2019-06-20T05:51:45.152Z,94872.84
2019-06-20T05:54:16.972Z,94868.98
2019-06-20T05:56:48.468Z,94862.78
2019-06-20T05:59:20.150Z,94861.48
2019-06-20T06:01:51.931Z,94860.61
2019-06-20T06:04:23.532Z,94856.33
2019-06-20T06:06:55.434Z,94863.27
2019-06-20T06:09:27.228Z,94859.16
2019-06-20T06:11:58.965Z,94863.20
2019-06-20T06:14:31.567Z,94857.33
2019-06-20T06:17:03.689Z,94850.64
2019-06-20T06:19:35.601Z,94854.41
2019-06-20T06:22:07.427Z,94858.48
2019-06-20T06:24:39.188Z,94861.19
2019-06-20T06:27:10.724Z,94863.17
2019-06-20T06:29:42.551Z,94858.73
2019-06-20T06:32:14.240Z,94858.11
2019-06-20T06:34:46.111Z,94855.91
2019-06-20T06:37:17.913Z,94848.64
2019-06-20T06:39:49.655Z,94849.74
2019-06-20T06:42:22.127Z,94849.90
2019-06-20T06:44:53.812Z,94850.75
2019-06-20T06:47:25.554Z,94842.22
2019-06-20T06:49:57.215Z,94847.84
2019-06-20T06:52:28.815Z,94847.30
2019-06-20T06:55:01.447Z,94847.64
2019-06-20T06:57:32.968Z,94842.36
2019-06-20T07:00:06.599Z,94842.00
2019-06-20T07:02:38.533Z,94844.98
2019-06-20T07:05:10.905Z,94839.06
2019-06-20T07:07:43.738Z,94837.78
2019-06-20T07:10:15.511Z,94839.08
2019-06-20T07:12:47.677Z,94839.83
2019-06-20T07:15:19.834Z,94832.84
2019-06-20T07:17:52.538Z,94832.99
2019-06-20T07:20:24.810Z,94831.10
2019-06-20T07:22:56.960Z,94833.48
2019-06-20T07:25:28.534Z,94828.24
2019-06-20T07:28:00.289Z,94829.30
2019-06-20T07:30:32.239Z,94823.82
2019-06-20T07:33:04.080Z,94822.45
2019-06-20T07:35:35.728Z,94829.08
2019-06-20T07:38:07.573Z,94829.27
2019-06-20T07:40:39.042Z,94830.41
2019-06-20T07:43:10.650Z,94834.70
2019-06-20T07:45:42.333Z,94840.31
2019-06-20T07:48:14.011Z,94839.11
2019-06-20T07:50:45.456Z,94839.33
2019-06-20T07:53:17.482Z,94833.39
2019-06-20T07:55:49.474Z,94835.16
2019-06-20T07:58:20.966Z,94834.74
2019-06-20T08:00:53.115Z,94838.44
2019-06-20T08:03:24.908Z,94832.77
2019-06-20T08:05:56.898Z,94836.76
2019-06-20T08:08:28.884Z,94831.84
2019-06-20T08:11:00.406Z,94831.25
2019-06-20T08:13:32.087Z,94832.69
2019-06-20T08:16:04.162Z,94831.48
2019-06-20T08:18:35.796Z,94827.98
2019-06-20T08:21:07.402Z,94824.48
2019-06-20T08:23:39.087Z,94821.75
2019-06-20T08:26:10.947Z,94817.34
2019-06-20T08:28:42.571Z,94824.92
2019-06-20T08:31:14.309Z,94818.48
2019-06-20T08:33:45.793Z,94820.73
2019-06-20T08:36:17.203Z,94808.95
2019-06-20T08:38:48.717Z,94812.59
2019-06-20T08:41:20.349Z,94813.97
2019-06-20T08:43:51.676Z,94812.05
2019-06-20T08:46:23.412Z,94802.53
2019-06-20T08:48:54.922Z,94806.05
2019-06-20T08:51:26.782Z,94808.04
2019-06-20T08:53:59.270Z,94808.73
2019-06-20T08:56:31.214Z,94805.54
2019-06-20T08:59:04.848Z,94799.02
2019-06-20T09:01:36.718Z,94799.02
2019-06-20T09:04:08.471Z,94803.05
2019-06-20T09:06:43.062Z,94810.31
2019-06-20T09:09:14.872Z,94795.84
2019-06-20T09:11:46.548Z,94795.84
2019-06-20T09:14:18.426Z,94796.52
2019-06-20T09:16:50.068Z,94797.41
2019-06-20T09:19:21.947Z,94798.65
2019-06-20T09:21:54.188Z,94791.52
2019-06-20T09:24:26.045Z,94785.59
2019-06-20T09:26:57.845Z,94779.58
2019-06-20T09:29:41.342Z,94785.38
2019-06-20T09:32:04.596Z,94785.30
2019-06-20T09:34:36.603Z,94783.72
2019-06-20T09:37:08.482Z,94782.22
2019-06-20T09:39:40.506Z,94777.75
2019-06-20T09:42:12.506Z,94768.33
2019-06-20T09:44:44.345Z,94768.79
2019-06-20T09:47:16.189Z,94767.30
2019-06-20T09:49:50.506Z,94769.00
2019-06-20T09:52:21.703Z,94777.12
2019-06-20T09:54:53.947Z,94770.94
2019-06-20T09:57:25.730Z,94772.36
2019-06-20T10:00:07.916Z,94763.44
2019-06-20T10:02:30.827Z,94760.42
2019-06-20T10:05:02.466Z,94763.09
2019-06-20T10:07:34.469Z,94762.16
2019-06-20T10:10:07.167Z,94756.91
2019-06-20T10:12:38.888Z,94755.44
2019-06-20T10:15:30.727Z,94751.30
2019-06-20T10:18:02.715Z,94744.77
2019-06-20T10:20:34.970Z,94747.83
2019-06-20T10:23:06.645Z,94755.19
2019-06-20T10:25:38.245Z,94744.47
2019-06-20T10:28:10.200Z,94758.81
2019-06-20T10:30:41.909Z,94761.20
2019-06-20T10:33:13.665Z,94766.24
2019-06-20T10:35:46.666Z,94770.50
2019-06-20T10:38:19.344Z,94767.92
2019-06-20T10:40:52.000Z,94763.30
2019-06-20T10:43:23.908Z,94754.19
2019-06-20T10:45:56.702Z,94743.48
2019-06-20T10:48:28.415Z,94740.92
2019-06-20T10:51:19.010Z,94738.91
2019-06-20T10:53:51.545Z,94737.30
2019-06-20T10:56:23.361Z,94736.50
2019-06-20T10:58:54.999Z,94743.96
2019-06-20T11:01:26.478Z,94740.98
2019-06-20T11:03:58.051Z,94747.37
2019-06-20T11:06:29.533Z,94752.80
2019-06-20T11:09:01.209Z,94754.44
2019-06-20T11:11:34.290Z,94764.59
2019-06-20T11:14:06.268Z,94775.82
2019-06-20T11:16:39.890Z,94779.91
2019-06-20T11:19:12.227Z,94796.84
2019-06-20T11:21:45.635Z,94807.59
2019-06-20T11:24:17.546Z,94828.94
2019-06-20T11:26:49.517Z,94845.53
2019-06-20T11:29:21.703Z,94836.70
2019-06-20T11:31:53.251Z,94845.23
2019-06-20T11:34:25.111Z,94861.74
2019-06-20T11:36:56.731Z,94857.20
2019-06-20T11:39:28.548Z,94859.12
2019-06-20T11:42:00.215Z,94856.65
2019-06-20T11:44:31.822Z,94846.39
2019-06-20T11:47:03.655Z,94845.52
2019-06-20T11:49:36.408Z,94845.48
2019-06-20T11:52:09.129Z,94844.69
2019-06-20T11:54:42.446Z,94849.34
2019-06-20T11:57:14.273Z,94845.34
2019-06-20T11:59:45.815Z,94849.80
2019-06-20T12:02:17.457Z,94850.64
2019-06-20T12:04:49.280Z,94846.67
2019-06-20T12:07:20.985Z,94839.58
2019-06-20T12:09:52.693Z,94835.98
2019-06-20T12:12:24.462Z,94832.06
2019-06-20T12:14:56.051Z,94828.16
2019-06-20T12:17:27.648Z,94817.82
2019-06-20T12:20:00.363Z,94816.88
2019-06-20T12:22:32.388Z,94810.81
2019-06-20T12:25:04.354Z,94804.75
2019-06-20T12:27:36.300Z,94800.18
2019-06-20T12:30:08.844Z,94797.59
2019-06-20T12:32:40.663Z,94797.98
2019-06-20T12:35:13.517Z,94797.19
2019-06-20T12:37:45.741Z,94794.15
2019-06-20T12:40:19.478Z,94789.34
2019-06-20T12:42:51.265Z,94784.76
2019-06-20T12:45:22.834Z,94788.31
2019-06-20T12:47:54.775Z,94779.48
2019-06-20T12:50:26.488Z,94772.98
2019-06-20T12:52:58.238Z,94772.01
2019-06-20T12:55:29.904Z,94771.86
2019-06-20T12:58:01.802Z,94769.37
2019-06-20T13:00:33.712Z,94765.09
2019-06-20T13:03:06.621Z,94759.73
2019-06-20T13:05:38.432Z,94757.52
2019-06-20T13:08:13.429Z,94760.14
2019-06-20T13:10:44.233Z,94748.06
2019-06-20T13:13:15.852Z,94747.41
2019-06-20T13:15:48.892Z,94748.98
2019-06-20T13:18:20.534Z,94755.78
2019-06-20T13:20:52.062Z,94763.02
2019-06-20T13:23:23.716Z,94763.70
2019-06-20T13:25:55.259Z,94771.42
2019-06-20T13:28:26.941Z,94780.18
2019-06-20T13:30:58.804Z,94781.84
2019-06-20T13:33:30.321Z,94786.54
2019-06-20T13:36:02.215Z,94786.91
2019-06-20T13:38:33.973Z,94789.17
2019-06-20T13:41:05.531Z,94790.37
2019-06-20T13:43:37.121Z,94784.66
2019-06-20T13:46:08.828Z,94785.36
2019-06-20T13:48:42.218Z,94789.67
2019-06-20T13:51:14.093Z,94803.41
2019-06-20T13:53:46.332Z,94807.19
2019-06-20T13:56:18.124Z,94814.53
2019-06-20T13:58:51.238Z,94814.17
2019-06-20T14:01:22.719Z,94826.76
2019-06-20T14:03:54.508Z,94823.12
2019-06-20T14:06:26.571Z,94826.77
2019-06-20T14:08:58.403Z,94832.94
2019-06-20T14:11:30.041Z,94835.93
2019-06-20T14:14:01.637Z,94838.26
2019-06-20T14:16:33.570Z,94839.63
2019-06-20T14:19:05.267Z,94832.86
2019-06-20T14:21:36.776Z,94827.03
2019-06-20T14:24:08.526Z,94815.52
2019-06-20T14:26:43.314Z,94808.75
2019-06-20T14:29:13.726Z,94809.86
2019-06-20T14:31:49.152Z,94799.81
2019-06-20T14:34:20.982Z,94794.20
2019-06-20T14:36:54.010Z,94798.55
2019-06-20T14:39:26.160Z,94792.24
2019-06-20T14:41:57.720Z,94792.24
2019-06-20T14:44:29.439Z,94789.95
2019-06-20T14:47:01.032Z,94780.39
2019-06-20T14:49:32.553Z,94780.39
2019-06-20T14:52:04.757Z,94787.09
2019-06-20T14:54:36.636Z,94781.33
2019-06-20T14:57:08.296Z,94779.87
2019-06-20T14:59:40.366Z,94779.77
2019-06-20T15:02:12.073Z,94778.52
2019-06-20T15:04:46.218Z,94781.25
2019-06-20T15:07:18.029Z,94781.70
2019-06-20T15:09:51.257Z,94778.31
2019-06-20T15:12:22.972Z,94778.31
2019-06-20T15:14:55.537Z,94782.28
2019-06-20T15:17:27.282Z,94792.47
2019-06-20T15:19:58.939Z,94786.91
2019-06-20T15:22:30.559Z,94788.80
2019-06-20T15:25:02.275Z,94785.20
2019-06-20T15:27:33.764Z,94788.46
2019-06-20T15:30:06.393Z,94780.09
2019-06-20T15:32:50.584Z,94771.52
2019-06-20T15:35:13.430Z,94775.00
2019-06-20T15:37:46.664Z,94773.52
2019-06-20T15:40:18.897Z,94756.53
2019-06-20T15:42:51.539Z,94753.80
2019-06-20T15:45:24.322Z,94740.03
2019-06-20T15:47:56.154Z,94743.97
2019-06-20T15:50:27.909Z,94748.95
2019-06-20T15:52:59.750Z,94745.22
2019-06-20T15:55:31.622Z,94745.55
2019-06-20T15:58:03.456Z,94741.09
2019-06-20T16:00:35.393Z,94740.80
2019-06-20T16:03:10.277Z,94730.14
2019-06-20T16:05:40.723Z,94736.17
2019-06-20T16:08:12.457Z,94732.19
2019-06-20T16:10:44.205Z,94736.27
2019-06-20T16:13:15.945Z,94726.98
2019-06-20T16:15:47.723Z,94727.64
2019-06-20T16:18:19.423Z,94729.77
2019-06-20T16:20:50.997Z,94733.70
2019-06-20T16:23:22.791Z,94746.33
2019-06-20T16:25:54.613Z,94746.60
2019-06-20T16:28:26.540Z,94750.57
2019-06-20T16:31:08.398Z,94757.81
2019-06-20T16:33:32.269Z,94767.23
2019-06-20T16:36:03.874Z,94777.41
2019-06-20T16:38:35.881Z,94774.55
2019-06-20T16:41:07.331Z,94783.62
2019-06-20T16:43:38.788Z,94789.00
2019-06-20T16:46:10.460Z,94783.10
2019-06-20T16:48:42.062Z,94786.41
2019-06-20T16:51:13.564Z,94779.37
2019-06-20T16:53:45.436Z,94788.45
2019-06-20T16:56:17.365Z,94784.64
2019-06-20T16:58:49.056Z,94789.53
2019-06-20T17:01:20.692Z,94790.39
2019-06-20T17:03:53.642Z,94788.61
2019-06-20T17:06:25.094Z,94804.88
2019-06-20T17:08:56.759Z,94797.33
2019-06-20T17:11:29.668Z,94795.73
2019-06-20T17:14:01.552Z,94791.89
2019-06-20T17:16:33.441Z,94785.20
2019-06-20T17:19:05.248Z,94779.91
2019-06-20T17:21:37.120Z,94789.98
2019-06-20T17:24:08.926Z,94800.80
2019-06-20T17:26:40.479Z,94801.69
2019-06-20T17:29:12.150Z,94808.36
2019-06-20T17:31:43.660Z,94801.76
2019-06-20T17:34:16.877Z,94803.91
2019-06-20T17:36:48.755Z,94805.33
2019-06-20T17:39:20.417Z,94808.83
2019-06-20T17:41:55.468Z,94807.02
2019-06-20T17:44:27.430Z,94803.10
2019-06-20T17:46:58.550Z,94806.66
2019-06-20T17:49:30.171Z,94810.16
2019-06-20T17:52:02.035Z,94808.86
2019-06-20T17:54:33.741Z,94808.48
2019-06-20T17:57:05.928Z,94811.67
2019-06-20T17:59:37.498Z,94802.23
2019-06-20T18:02:09.189Z,94803.23
2019-06-20T18:04:40.921Z,94792.36
2019-06-20T18:07:12.581Z,94788.86
2019-06-20T18:09:58.663Z,94791.70
2019-06-20T18:12:30.488Z,94794.07
2019-06-20T18:15:02.059Z,94797.85
2019-06-20T18:17:33.820Z,94800.00
2019-06-20T18:20:06.057Z,94791.06
2019-06-20T18:22:37.601Z,94796.33
2019-06-20T18:25:10.713Z,94802.83
2019-06-20T18:27:42.540Z,94812.20
2019-06-20T18:30:14.117Z,94808.80
2019-06-20T18:32:45.697Z,94816.80
2019-06-20T18:35:17.783Z,94822.53
2019-06-20T18:37:49.504Z,94823.88
2019-06-20T18:40:21.569Z,94829.77
2019-06-20T18:42:53.389Z,94834.97
2019-06-20T18:45:25.466Z,94843.61
2019-06-20T18:47:57.278Z,94851.38
2019-06-20T18:50:28.850Z,94849.91
2019-06-20T18:53:00.603Z,94858.29
2019-06-20T18:55:32.263Z,94866.13
2019-06-20T18:58:04.011Z,94865.89
2019-06-20T19:00:36.136Z,94863.75
2019-06-20T19:03:08.670Z,94871.20
2019-06-20T19:05:40.710Z,94871.50
2019-06-20T19:08:12.371Z,94877.01
2019-06-20T19:10:44.524Z,94882.39
2019-06-20T19:13:16.384Z,94886.22
2019-06-20T19:15:48.188Z,94892.13
2019-06-20T19:18:22.917Z,94896.38
2019-06-20T19:20:53.346Z,94897.68
2019-06-20T19:23:25.030Z,94908.97
2019-06-20T19:25:57.038Z,94901.75
2019-06-20T19:28:28.611Z,94906.18
2019-06-20T19:31:01.487Z,94909.30
2019-06-20T19:33:33.124Z,94911.02
2019-06-20T19:36:04.781Z,94908.97
2019-06-20T19:38:36.552Z,94921.06
2019-06-20T19:41:08.087Z,94920.27
2019-06-20T19:43:39.811Z,94923.80
2019-06-20T19:46:11.862Z,94925.66
2019-06-20T19:48:44.072Z,94922.52
2019-06-20T19:51:16.065Z,94924.55
2019-06-20T19:53:47.677Z,94923.75
2019-06-20T19:56:19.318Z,94924.98
2019-06-20T19:58:51.255Z,94934.55
2019-06-20T20:01:22.951Z,94935.70
2019-06-20T20:03:54.522Z,94939.89
2019-06-20T20:06:26.090Z,94940.13
2019-06-20T20:08:57.910Z,94941.00
2019-06-20T20:11:29.482Z,94940.19
2019-06-20T20:14:01.019Z,94932.06
2019-06-20T20:16:32.994Z,94925.06
2019-06-20T20:19:04.825Z,94922.78
2019-06-20T20:21:36.509Z,94931.60
2019-06-20T20:24:08.336Z,94925.44
2019-06-20T20:26:39.988Z,94915.04
2019-06-20T20:29:11.669Z,94914.16
2019-06-20T20:31:44.421Z,94919.92
2019-06-20T20:34:16.283Z,94914.75
2019-06-20T20:36:48.044Z,94917.39
2019-06-20T20:39:19.909Z,94920.61
2019-06-20T20:41:51.657Z,94926.72
2019-06-20T20:44:23.361Z,94930.74
2019-06-20T20:46:55.153Z,94927.73
2019-06-20T20:49:26.783Z,94930.77
2019-06-20T20:51:58.474Z,94929.36
2019-06-20T20:54:30.096Z,94930.55
2019-06-20T20:57:01.619Z,94931.47
2019-06-20T20:59:33.510Z,94925.65
2019-06-20T21:02:05.279Z,94929.22
2019-06-20T21:04:36.965Z,94932.45
2019-06-20T21:07:09.821Z,94935.21
2019-06-20T21:09:42.833Z,94930.38
2019-06-20T21:12:14.671Z,94926.19
2019-06-20T21:14:46.462Z,94933.20
2019-06-20T21:17:17.983Z,94926.56
2019-06-20T21:19:49.856Z,94923.83
2019-06-20T21:22:22.698Z,94932.45
2019-06-20T21:24:54.552Z,94923.45
2019-06-20T21:27:26.380Z,94921.30
2019-06-20T21:29:58.214Z,94923.66
2019-06-20T21:32:29.894Z,94914.59
2019-06-20T21:35:03.763Z,94911.62
2019-06-20T21:37:36.770Z,94910.05
2019-06-20T21:40:09.938Z,94908.67
2019-06-20T21:42:40.347Z,94907.33
2019-06-20T21:45:11.998Z,94908.94
2019-06-20T21:47:43.603Z,94917.22
2019-06-20T21:50:15.464Z,94924.61
2019-06-20T21:52:48.333Z,94930.41
2019-06-20T21:55:19.955Z,94929.23
2019-06-20T21:57:52.064Z,94927.15
2019-06-20T22:00:28.453Z,94933.64
2019-06-20T22:03:01.738Z,94937.41
2019-06-20T22:05:33.254Z,94929.02
2019-06-20T22:08:05.229Z,94923.05
2019-06-20T22:10:37.219Z,94926.58
2019-06-20T22:13:08.826Z,94922.94
2019-06-20T22:15:40.719Z,94928.04
2019-06-20T22:18:12.281Z,94924.90
2019-06-20T22:20:44.049Z,94925.45
2019-06-20T22:23:15.534Z,94924.23
2019-06-20T22:25:47.006Z,94924.45
2019-06-20T22:28:18.861Z,94920.48
2019-06-20T22:30:53.357Z,94928.79
2019-06-20T22:33:25.184Z,94924.78
2019-06-20T22:35:57.135Z,94929.34
2019-06-20T22:38:28.954Z,94933.81
2019-06-20T22:41:00.523Z,94927.30
2019-06-20T22:43:32.155Z,94934.47
2019-06-20T22:46:03.822Z,94938.28
2019-06-20T22:48:35.215Z,94942.63
2019-06-20T22:51:06.910Z,94933.55
2019-06-20T22:53:38.844Z,94941.11
2019-06-20T22:56:10.499Z,94946.92
2019-06-20T22:58:41.826Z,94946.84
2019-06-20T23:01:13.538Z,94954.01
2019-06-20T23:03:45.174Z,94941.30
2019-06-20T23:06:16.754Z,94931.92
2019-06-20T23:08:48.329Z,94927.25
2019-06-20T23:11:20.082Z,94918.67
2019-06-20T23:13:51.694Z,94911.91
2019-06-20T23:16:23.530Z,94910.59
2019-06-20T23:18:55.228Z,94914.58
2019-06-20T23:21:26.912Z,94924.70
2019-06-20T23:23:58.573Z,94922.41
2019-06-20T23:26:30.038Z,94917.31
2019-06-20T23:29:19.521Z,94913.80
2019-06-20T23:31:51.275Z,94922.70
2019-06-20T23:34:23.200Z,94928.59
2019-06-20T23:36:54.676Z,94920.59
2019-06-20T23:39:28.467Z,94920.17
2019-06-20T23:41:59.275Z,94920.78
2019-06-20T23:44:31.103Z,94920.55
2019-06-20T23:47:02.894Z,94917.30
2019-06-20T23:49:34.517Z,94922.63
2019-06-20T23:52:11.409Z,94923.66
2019-06-20T23:54:45.971Z,94931.41
2019-06-20T23:57:17.352Z,94926.10
2019-06-20T23:59:48.864Z,94932.80
